createdAt,value
2023-03-17T00:09:01.332Z,9.9
2023-03-17T00:19:02.015Z,10
2023-03-17T00:29:02.211Z,10
2023-03-17T00:39:42.448Z,9.9
2023-03-17T00:49:09.961Z,9.8
2023-03-17T00:59:03.418Z,9.4
2023-03-17T01:09:04.031Z,9.5
2023-03-17T01:29:05.052Z,9.6
2023-03-17T01:39:06.008Z,9.7
2023-03-17T01:49:06.908Z,9.8
2023-03-17T01:59:07.441Z,9.7
2023-03-17T02:09:07.693Z,9.5
2023-03-17T02:29:09.327Z,9.7
2023-03-17T02:49:10.490Z,9.7
2023-03-17T02:59:10.624Z,9.7
2023-03-17T03:09:11.155Z,9.7
2023-03-17T03:19:11.675Z,9.7
2023-03-17T03:29:11.948Z,9.5
2023-03-17T03:39:14.406Z,9.5
2023-03-17T03:49:52.775Z,9.5
2023-03-17T03:59:14.123Z,9.4
2023-03-17T04:19:22.069Z,9.4
2023-03-17T04:29:54.843Z,9.5
2023-03-17T04:39:23.065Z,9.4
2023-03-17T04:49:23.980Z,9.5
2023-03-17T04:59:17.696Z,9.6
2023-03-17T05:09:18.060Z,9.6
2023-03-17T05:19:18.905Z,9.5
2023-03-17T05:29:19.331Z,9.4
2023-03-17T05:39:19.720Z,9.5
2023-03-17T05:49:19.985Z,9.5
2023-03-17T06:39:30.241Z,9.6
2023-03-17T06:49:23.430Z,9.7
2023-03-17T07:09:24.780Z,10.4
2023-03-17T07:19:32.269Z,10.7
2023-03-17T07:29:25.612Z,11.1
2023-03-17T07:39:26.082Z,11.5
2023-03-17T07:59:34.071Z,12.1
2023-03-17T08:19:27.439Z,12.6
2023-03-17T08:29:34.635Z,12.9
2023-03-17T08:39:35.467Z,13
2023-03-17T08:49:29.638Z,13.3
2023-03-17T09:19:37.837Z,13.7
2023-03-17T09:29:38.409Z,13.8
2023-03-17T09:39:38.819Z,14.2
2023-03-17T09:49:32.303Z,14.5
2023-03-17T10:20:13.550Z,15.7
2023-03-17T10:20:53.245Z,15.8
2023-03-17T10:30:20.355Z,16.1
2023-03-17T10:40:20.571Z,15.8
2023-03-17T10:50:27.730Z,15.7
2023-03-17T11:00:28.943Z,15.6
2023-03-17T11:10:22.222Z,15.8
2023-03-17T11:20:30.221Z,16.3
2023-03-17T11:30:23.739Z,16.4
2023-03-17T11:40:24.275Z,17.5
2023-03-17T11:50:24.954Z,17.8
2023-03-17T12:00:32.364Z,17.7
2023-03-17T12:20:34.124Z,18.1
2023-03-17T12:30:27.314Z,17.9
2023-03-17T12:50:35.592Z,17.7
2023-03-17T13:00:29.506Z,17.7
2023-03-17T13:10:29.997Z,17.7
2023-03-17T13:21:10.426Z,17.7
2023-03-17T13:40:31.989Z,17.9
2023-03-17T13:51:13.221Z,18
2023-03-17T14:00:32.442Z,18
2023-03-17T14:10:32.945Z,18
2023-03-17T14:20:40.673Z,17.9
2023-03-17T14:40:41.990Z,17.8
2023-03-17T14:50:35.894Z,17.9
2023-03-17T15:10:43.273Z,17.5
2023-03-17T15:20:36.567Z,17.4
2023-03-17T15:30:46.397Z,17.1
2023-03-17T15:40:37.417Z,16.8
2023-03-17T15:50:37.878Z,16.8
2023-03-17T16:00:45.613Z,16.7
2023-03-17T16:10:39.043Z,16.6
2023-03-17T16:20:39.423Z,16.6
2023-03-17T16:40:40.579Z,16.3
2023-03-17T16:50:41.392Z,16
2023-03-17T17:00:48.930Z,15.8
2023-03-17T17:10:49.310Z,15.5
2023-03-17T17:20:42.568Z,15.2
2023-03-17T17:30:43.129Z,15
2023-03-17T17:40:51.927Z,14.9
2023-03-17T17:50:44.368Z,14.7
2023-03-17T18:00:44.931Z,14.5
2023-03-17T18:10:45.787Z,14.5
2023-03-17T18:20:53.362Z,14.4
2023-03-17T18:30:46.758Z,14.3
2023-03-17T18:40:47.711Z,14.2
2023-03-17T19:00:48.657Z,14
2023-03-17T19:10:48.867Z,14.1
2023-03-17T19:20:49.214Z,13.9
2023-03-17T19:30:49.826Z,13.5
2023-03-17T19:50:50.633Z,13.8
2023-03-17T20:30:52.592Z,13.7
2023-03-17T20:40:52.744Z,13.6
2023-03-17T20:50:53.606Z,13.8
2023-03-17T21:00:57.037Z,13.8
2023-03-17T21:11:02.123Z,13.8
2023-03-17T21:40:56.261Z,13.4
2023-03-17T22:20:57.467Z,13.2
2023-03-17T22:40:58.551Z,13.2
2023-03-17T22:50:59.197Z,13.2
2023-03-17T23:41:02.356Z,12.5
2023-03-17T23:51:10.307Z,12.3
